Sparta, New Jersey
Current Conditions -  °F | °C
As of 2:53 AM on Tuesday 21 Oct 2014 (Local Time) from KFWN Reporting Station
Light Rain Light Rain  
Wind Chill: 49°   Ceiling: 7000
Heat Index: 49°   Visibility: 10mi
Dew Point: 44°   Wind: 0mph
Humidity: 83%   Direction: NA
Pressure: 29.91"   Gusts: NA
Location:  41.03°N, 74.64°W
Report Text: KFWN 210653Z AUTO 00000KT 10SM -RA OVC070 09/07 A2991 RMK AO2 RAE04B27 SLP128 P0000 T00940067
Loading
Personal Weather Stations






























Interactive Weather Map
Tropical Storm Tracking
New forecast layout! Learn more

10-Day Weather Forecast

Advertisements
Track Severe Weather on mobile